Flight Track Log - Related Links

Times and Time Zones

All times are in EDT time to prevent confusion due to time zone crossing. See the FFT861 flight status page for this flight to view local times or setup timezone preferences in your user account.

Time Position Orientation Groundspeed Altitude Reporting Facility
EDT Latitude Longitude Course Direction KTS MPH feet Rate Location/Type
Wed 09:08:40 PM 40.4494 -88.9361 269° West 139 160 2,600  Level Kansas City Center
Wed 09:09:41 PM 40.4481 -89.0056 269° West 202 232 3,900 1,857 Climbing Kansas City Center
Wed 09:10:46 PM 40.4422 -89.0986 265° West 248 285 6,500 2,674 Climbing Chicago Center
Wed 09:12:45 PM 40.4264 -89.3025 264° West 280 322 12,100 2,552 Climbing Kansas City Center
Wed 09:13:47 PM 40.4175 -89.4225 264° West 318 366 14,200 2,279 Climbing Kansas City Center
Wed 09:14:54 PM 40.4047 -89.5758 264° West 353 406 17,000 2,140 Climbing Chicago Center
Wed 09:15:56 PM 40.3950 -89.7108 265° West 368 423 18,800 1,742 Climbing Chicago Center
Wed 09:16:58 PM 40.3831 -89.8547 264° West 390 449 20,600 1,694 Climbing Chicago Center
Wed 09:18:00 PM 40.3717 -90.0036 264° West 405 466 22,300 1,887 Climbing Chicago Center
Wed 09:19:02 PM 40.3603 -90.1542 264° West 409 471 24,500 2,081 Climbing Chicago Center
Wed 09:20:04 PM 40.3878 -90.3325 282° West 417 480 26,600 1,879 Climbing Chicago Center
Wed 09:20:41 PM 40.4025 -90.4208 282° West 412 474 27,600 1,515 Climbing Chicago Center
Wed 09:21:43 PM 40.4256 -90.5703 282° West 415 478 29,100 1,161 Climbing Chicago Center
Wed 09:22:45 PM 40.4486 -90.7192 282° West 415 478 30,000 1,122 Climbing Chicago Center
Wed 09:23:46 PM 40.4742 -90.8747 282° West 430 495 31,400 1,561 Climbing Chicago Center
Wed 09:24:48 PM 40.4975 -91.0261 282° West 423 487 33,200 1,548 Climbing Chicago Center
Wed 09:25:50 PM 40.5194 -91.1719 281° West 411 473 34,600 1,306 Climbing Chicago Center
Wed 09:26:52 PM 40.5439 -91.3317 281° West 404 465 35,900 1,161 Climbing Chicago Center
Wed 09:27:54 PM 40.5647 -91.4717 281° West 397 457 37,000 1,016 Climbing Chicago Center
Wed 09:28:56 PM 40.5844 -91.6089 281° West 388 447 38,000 484 Climbing Chicago Center
Wed 09:29:58 PM 40.6061 -91.7481 282° West 390 449 38,000  Level Chicago Center
Wed 09:30:59 PM 40.6294 -91.9147 281° West 390 449 38,000  Level Chicago Center
Wed 09:32:01 PM 40.6506 -92.0539 281° West 392 451 38,000  Level Chicago Center
Wed 09:33:03 PM 40.6711 -92.1925 281° West 392 451 38,000  Level Chicago Center
Wed 09:34:05 PM 40.6900 -92.3328 280° West 395 455 38,000  Level Chicago Center
Wed 09:35:06 PM 40.7131 -92.5000 280° West 395 455 38,000  Level Chicago Center
Wed 09:36:08 PM 40.7333 -92.6406 281° West 395 455 38,000  Level Chicago Center
Wed 09:37:10 PM 40.7531 -92.7808 281° West 395 455 38,000  Level Chicago Center
Wed 09:38:15 PM 40.7717 -92.9233 280° West 396 456 38,000  Level Minneapolis Center
Wed 09:39:29 PM 40.7956 -93.0944 281° West 399 459 38,000  Level Minneapolis Center
Wed 09:40:31 PM 40.8183 -93.2631 280° West 393 452 38,000  Level Minneapolis Center
Wed 09:41:33 PM 40.8372 -93.4092 280° West 400 460 38,000  Level Minneapolis Center
Wed 09:42:34 PM 40.8550 -93.5544 279° West 405 466 38,000  Level Minneapolis Center
Wed 09:43:36 PM 40.8739 -93.6986 280° West 404 465 38,000  Level Minneapolis Center
Wed 09:44:38 PM 40.8969 -93.8692 280° West 401 461 38,000  Level Minneapolis Center
Wed 09:45:39 PM 40.9081 -94.0142 276° West 400 460 38,000  Level Minneapolis Center
Wed 09:46:41 PM 40.9161 -94.1589 274° West 400 460 38,000  Level Minneapolis Center
Wed 09:47:43 PM 40.9278 -94.3047 276° West 403 464 38,000  Level Minneapolis Center
Wed 09:48:44 PM 40.9353 -94.4494 274° West 399 459 38,000  Level Minneapolis Center
Wed 09:49:58 PM 40.9464 -94.6047 275° West 402 463 38,000  Level Minneapolis Center
Wed 09:51:00 PM 40.9569 -94.7808 275° West 401 461 38,000  Level Minneapolis Center
Wed 09:52:02 PM 40.9375 -94.9247 260° West 400 460 38,000  Level Minneapolis Center
Wed 09:53:03 PM 40.8983 -95.0931 253° West 400 460 38,000  Level Minneapolis Center
Wed 09:54:05 PM 40.8669 -95.2364 254° West 402 463 38,000  Level Minneapolis Center
Wed 09:55:06 PM 40.8375 -95.3783 255° West 401 461 38,000  Level Minneapolis Center
Wed 09:56:08 PM 40.8353 -95.5283 269° West 404 465 38,000  Level Minneapolis Center
Wed 09:57:09 PM 40.8372 -95.6750 271° West 401 461 38,000  Level Minneapolis Center
Wed 09:58:11 PM 40.8389 -95.8236 271° West 402 463 38,000  Level Minneapolis Center
Wed 09:59:12 PM 40.8406 -95.9733 271° West 404 465 38,000  Level Minneapolis Center
Wed 10:00:14 PM 40.8417 -96.1228 271° West 404 465 38,000  Level Minneapolis Center
Wed 10:01:15 PM 40.8419 -96.2714 270° West 403 464 38,000  Level Minneapolis Center
Wed 10:02:17 PM 40.8425 -96.4189 270° West 402 463 38,000  Level Minneapolis Center
Wed 10:03:19 PM 40.8436 -96.5978 271° West 403 464 38,000  Level Minneapolis Center
Wed 10:04:20 PM 40.8442 -96.7467 270° West 404 465 38,000  Level Minneapolis Center
Wed 10:05:21 PM 40.8447 -96.8958 270° West 405 466 38,000  Level Minneapolis Center
Wed 10:06:23 PM 40.8447 -97.0425 270° West 403 464 38,000  Level Minneapolis Center
Wed 10:07:25 PM 40.8444 -97.1886 270° West 399 459 38,000  Level Minneapolis Center
Wed 10:08:26 PM 40.8444 -97.3064 270° West 399 459 38,000  Level Minneapolis Center
Wed 10:09:39 PM 40.8428 -97.4803 269° West 399 459 38,000  Level Minneapolis Center
Wed 10:10:53 PM 40.8414 -97.6578 269° West 401 461 38,000  Level Minneapolis Center
Wed 10:11:55 PM 40.8408 -97.8681 270° West 406 467 38,000 48 Level Minneapolis Center
Wed 10:12:57 PM 40.8406 -98.0200 270° West 409 471 38,100  Climbing Minneapolis Center
Wed 10:13:58 PM 40.8386 -98.1728 269° West 412 474 38,000 -49 Descending Minneapolis Center
Wed 10:14:59 PM 40.8372 -98.2944 269° West 413 475 38,000  Level Minneapolis Center
Wed 10:16:01 PM 40.8353 -98.4778 269° West 415 478 38,000  Level Minneapolis Center
Wed 10:17:03 PM 40.8317 -98.6306 268° West 416 479 38,000  Level Minneapolis Center
Wed 10:18:04 PM 40.8303 -98.7831 269° West 416 479 38,000  Level Minneapolis Center
Wed 10:19:06 PM 40.8278 -98.9369 269° West 418 481 38,000  Level Minneapolis Center
Wed 10:20:15 PM 40.8250 -99.1300 269° West 420 483 38,000  Level Denver Center
Wed 10:21:16 PM 40.8222 -99.2867 269° West 424 488 38,000  Level Denver Center
Wed 10:22:18 PM 40.8189 -99.4428 268° West 424 488 38,000  Level Denver Center
Wed 10:23:20 PM 40.8150 -99.5992 268° West 425 489 38,000  Level Denver Center
Wed 10:24:21 PM 40.8114 -99.7550 268° West 423 487 38,000  Level Denver Center
Wed 10:25:35 PM 40.8058 -99.9225 268° West 423 487 38,000  Level Denver Center
Wed 10:26:37 PM 40.8017 -100.1231 268° West 428 493 38,000  Level Denver Center
Wed 10:27:38 PM 40.7978 -100.2719 268° West 426 490 38,000  Level Denver Center
Wed 10:28:40 PM 40.7842 -100.4450 264° West 425 489 38,000  Level Denver Center
Wed 10:29:42 PM 40.7683 -100.5931 262° West 424 488 38,000  Level Denver Center
Wed 10:30:43 PM 40.7489 -100.7494 261° West 451 519 38,000  Level Denver Center
Wed 10:31:45 PM 40.7347 -100.8997 263° West 430 495 38,000  Level Denver Center
Wed 10:32:46 PM 40.7169 -101.0722 262° West 425 489 38,000  Level Denver Center
Wed 10:33:48 PM 40.7003 -101.2211 262° West 427 491 38,000  Level Denver Center
Wed 10:34:50 PM 40.6808 -101.3967 262° West 434 499 38,000 -341 Level Denver Center
Wed 10:35:51 PM 40.6639 -101.5433 261° West 427 491 37,300 -732 Descending Denver Center
Wed 10:36:53 PM 40.6478 -101.6947 262° West 435 501 36,500 -634 Descending Denver Center
Wed 10:37:54 PM 40.6269 -101.8708 261° West 437 503 36,000 -244 Descending Denver Center
Wed 10:38:56 PM 40.6083 -102.0233 261° West 441 507 36,000  Level Denver Center
Wed 10:39:58 PM 40.5878 -102.2028 261° West 444 511 36,000  Level Denver Center
Wed 10:40:59 PM 40.5692 -102.3550 261° West 442 509 36,000 -439 Level Denver Center
Wed 10:42:01 PM 40.5478 -102.5361 261° West 448 516 35,100 -927 Descending Denver Center
Wed 10:43:02 PM 40.5294 -102.6903 261° West 447 514 34,100 -1,220 Descending Denver Center
Wed 10:44:04 PM 40.5083 -102.8444 260° West 449 517 32,600 -2,146 Descending Denver Center
Wed 10:45:05 PM 40.4861 -103.0239 261° West 447 514 29,700 -2,634 Descending Denver Center
Wed 10:46:07 PM 40.4650 -103.1803 260° West 453 521 27,200 -2,267 Descending Denver Center
Wed 10:47:20 PM 40.4433 -103.3553 261° West 434 499 24,600 -2,311 Descending Denver Center
Wed 10:48:22 PM 40.4194 -103.5353 260° West 417 480 22,000 -2,244 Descending Denver Center
Wed 10:49:23 PM 40.4008 -103.6714 260° West 400 460 20,000 -1,951 Descending Denver Center
Wed 10:50:25 PM 40.3819 -103.8256 261° West 397 457 18,000 -1,610 Descending Denver Center
Wed 10:51:26 PM 40.3361 -103.9403 242° Southwest 369 425 16,700 -1,171 Descending Denver Center
Wed 10:52:28 PM 40.2636 -104.0450 228° Southwest 360 414 15,600 -1,024 Descending Denver Center
Wed 10:53:29 PM 40.1936 -104.1383 226° Southwest 361 415 14,600 -878 Descending Denver Center
Wed 10:54:31 PM 40.1278 -104.2317 227° Southwest 352 405 13,800 -634 Descending Denver Center
Wed 10:55:32 PM 40.0603 -104.3228 226° Southwest 349 402 13,300 -393 Descending Denver Center
Wed 10:56:33 PM 39.9886 -104.4208 226° Southwest 348 400 13,000 -634 Descending Denver Center
Wed 10:57:35 PM 39.9217 -104.5114 226° Southwest 347 399 12,000 -878 Descending Denver Center
Wed 10:58:36 PM 39.8369 -104.5300 190° South 309 356 11,200 -732 Descending Denver Center
Wed 10:59:38 PM 39.7633 -104.5364 184° South 268 308 10,500 -1,024 Descending Denver Center
Wed 11:00:39 PM 39.6900 -104.5400 182° South 247 284 9,100 -1,033 Descending Denver Center
Wed 11:01:40 PM 39.6639 -104.6069 243° Southwest 234 269 8,400 -537 Descending Denver Center
Wed 11:02:42 PM 39.6931 -104.6606 305° West 209 241 8,000 -732 Descending Denver Center
Wed 11:03:43 PM 39.7481 -104.6619 359° North 196 226 6,900 -934 Descending Denver Center
Wed 11:04:44 PM 39.7908 -104.6614 North 149 171 6,100 -732 Descending Denver Center
Wed 11:05:46 PM 39.8278 -104.6611 360° North 134 154 5,400 -677 Descending Denver Center
Wed 11:07:00 PM 39.8500 -104.6667 314° West  Level FlightAware Approximate
Wed 11:14:00 PM 39.8617 -104.6732 314° West  Level Estimated

Login

Don't have an account? Register now (free) for customized features, flight alerts, and more!